sensor_id;sensor_type;location;lat;lon;timestamp;temperature;humidity
16966;DHT22;8599;47.852;12.070;2023-03-23T00:02:13;10.60;99.90
16966;DHT22;8599;47.852;12.070;2023-03-23T00:04:40;10.70;99.90
16966;DHT22;8599;47.852;12.070;2023-03-23T00:07:09;10.80;99.90
16966;DHT22;8599;47.852;12.070;2023-03-23T00:09:38;10.80;99.90
16966;DHT22;8599;47.852;12.070;2023-03-23T00:12:07;10.90;99.90
16966;DHT22;8599;47.852;12.070;2023-03-23T00:14:34;11.00;99.90
16966;DHT22;8599;47.852;12.070;2023-03-23T00:17:08;11.00;99.90
16966;DHT22;8599;47.852;12.070;2023-03-23T00:19:36;11.10;99.90
16966;DHT22;8599;47.852;12.070;2023-03-23T00:22:13;11.10;99.90
16966;DHT22;8599;47.852;12.070;2023-03-23T00:24:40;11.10;99.90
16966;DHT22;8599;47.852;12.070;2023-03-23T00:27:08;11.10;99.90
16966;DHT22;8599;47.852;12.070;2023-03-23T00:29:38;11.20;99.90
16966;DHT22;8599;47.852;12.070;2023-03-23T00:32:06;11.00;99.90
16966;DHT22;8599;47.852;12.070;2023-03-23T00:34:38;10.90;99.90
16966;DHT22;8599;47.852;12.070;2023-03-23T00:37:06;10.80;99.90
16966;DHT22;8599;47.852;12.070;2023-03-23T00:39:34;10.80;99.90
16966;DHT22;8599;47.852;12.070;2023-03-23T00:42:02;10.80;99.90
16966;DHT22;8599;47.852;12.070;2023-03-23T00:44:31;10.80;99.90
16966;DHT22;8599;47.852;12.070;2023-03-23T00:47:00;10.90;99.90
16966;DHT22;8599;47.852;12.070;2023-03-23T00:49:28;10.80;99.90
16966;DHT22;8599;47.852;12.070;2023-03-23T00:51:57;10.80;99.90
16966;DHT22;8599;47.852;12.070;2023-03-23T00:54:25;10.90;99.90
16966;DHT22;8599;47.852;12.070;2023-03-23T00:56:53;11.00;99.90
16966;DHT22;8599;47.852;12.070;2023-03-23T00:59:21;11.00;99.90
16966;DHT22;8599;47.852;12.070;2023-03-23T01:01:48;11.10;99.90
16966;DHT22;8599;47.852;12.070;2023-03-23T01:04:16;11.20;99.90
16966;DHT22;8599;47.852;12.070;2023-03-23T01:06:44;11.20;99.90
16966;DHT22;8599;47.852;12.070;2023-03-23T01:09:13;11.20;99.90
16966;DHT22;8599;47.852;12.070;2023-03-23T01:11:42;11.20;99.90
16966;DHT22;8599;47.852;12.070;2023-03-23T01:14:11;11.20;99.90
16966;DHT22;8599;47.852;12.070;2023-03-23T01:16:39;11.20;99.90
16966;DHT22;8599;47.852;12.070;2023-03-23T01:19:05;11.10;99.90
16966;DHT22;8599;47.852;12.070;2023-03-23T01:21:32;11.10;99.90
16966;DHT22;8599;47.852;12.070;2023-03-23T01:23:59;11.20;99.90
16966;DHT22;8599;47.852;12.070;2023-03-23T01:26:27;11.00;99.90
16966;DHT22;8599;47.852;12.070;2023-03-23T01:28:55;11.00;99.90
16966;DHT22;8599;47.852;12.070;2023-03-23T01:31:25;10.90;99.90
16966;DHT22;8599;47.852;12.070;2023-03-23T01:33:52;10.90;99.90
16966;DHT22;8599;47.852;12.070;2023-03-23T01:36:22;10.90;99.90
16966;DHT22;8599;47.852;12.070;2023-03-23T01:38:50;10.90;99.90
16966;DHT22;8599;47.852;12.070;2023-03-23T01:41:18;11.00;99.90
16966;DHT22;8599;47.852;12.070;2023-03-23T01:43:59;11.00;99.90
16966;DHT22;8599;47.852;12.070;2023-03-23T01:46:30;11.00;99.90
16966;DHT22;8599;47.852;12.070;2023-03-23T01:49:00;11.00;99.90
16966;DHT22;8599;47.852;12.070;2023-03-23T01:51:32;11.00;99.90
16966;DHT22;8599;47.852;12.070;2023-03-23T01:54:03;11.00;99.90
16966;DHT22;8599;47.852;12.070;2023-03-23T01:56:33;11.00;99.90
16966;DHT22;8599;47.852;12.070;2023-03-23T01:59:04;10.90;99.90
16966;DHT22;8599;47.852;12.070;2023-03-23T02:01:34;11.00;99.90
16966;DHT22;8599;47.852;12.070;2023-03-23T02:04:04;11.20;99.90
16966;DHT22;8599;47.852;12.070;2023-03-23T02:06:31;11.20;99.90
16966;DHT22;8599;47.852;12.070;2023-03-23T02:08:59;11.30;99.90
16966;DHT22;8599;47.852;12.070;2023-03-23T02:11:26;11.40;99.90
16966;DHT22;8599;47.852;12.070;2023-03-23T02:13:53;11.50;99.90
16966;DHT22;8599;47.852;12.070;2023-03-23T02:16:27;11.70;99.90
16966;DHT22;8599;47.852;12.070;2023-03-23T02:19:10;11.50;99.90
16966;DHT22;8599;47.852;12.070;2023-03-23T02:21:57;11.50;99.90
16966;DHT22;8599;47.852;12.070;2023-03-23T02:24:48;11.50;99.90
16966;DHT22;8599;47.852;12.070;2023-03-23T02:30:29;11.20;99.90
16966;DHT22;8599;47.852;12.070;2023-03-23T02:33:28;10.90;99.90
16966;DHT22;8599;47.852;12.070;2023-03-23T02:35:57;10.60;99.90
16966;DHT22;8599;47.852;12.070;2023-03-23T02:38:30;10.50;99.90
16966;DHT22;8599;47.852;12.070;2023-03-23T02:41:00;10.30;99.90
16966;DHT22;8599;47.852;12.070;2023-03-23T02:43:29;10.40;99.90
16966;DHT22;8599;47.852;12.070;2023-03-23T02:45:57;10.40;99.90
16966;DHT22;8599;47.852;12.070;2023-03-23T02:48:28;10.40;99.90
16966;DHT22;8599;47.852;12.070;2023-03-23T02:50:57;10.50;99.90
16966;DHT22;8599;47.852;12.070;2023-03-23T02:53:26;10.40;99.90
16966;DHT22;8599;47.852;12.070;2023-03-23T02:55:55;10.40;99.90
16966;DHT22;8599;47.852;12.070;2023-03-23T02:58:24;10.40;99.90
16966;DHT22;8599;47.852;12.070;2023-03-23T03:00:51;10.40;99.90
16966;DHT22;8599;47.852;12.070;2023-03-23T03:03:21;10.40;99.90
16966;DHT22;8599;47.852;12.070;2023-03-23T03:05:54;10.50;99.90
16966;DHT22;8599;47.852;12.070;2023-03-23T03:08:32;10.40;99.90
16966;DHT22;8599;47.852;12.070;2023-03-23T03:11:07;10.20;99.90
16966;DHT22;8599;47.852;12.070;2023-03-23T03:13:41;10.10;99.90
16966;DHT22;8599;47.852;12.070;2023-03-23T03:16:17;10.10;99.90
16966;DHT22;8599;47.852;12.070;2023-03-23T03:18:51;10.10;99.90
16966;DHT22;8599;47.852;12.070;2023-03-23T03:21:21;10.00;99.90
16966;DHT22;8599;47.852;12.070;2023-03-23T03:23:52;10.00;99.90
16966;DHT22;8599;47.852;12.070;2023-03-23T03:26:22;10.10;99.90
16966;DHT22;8599;47.852;12.070;2023-03-23T03:28:52;10.30;99.90
16966;DHT22;8599;47.852;12.070;2023-03-23T03:31:22;10.30;99.90
16966;DHT22;8599;47.852;12.070;2023-03-23T03:33:50;10.20;99.90
16966;DHT22;8599;47.852;12.070;2023-03-23T03:36:19;10.20;99.90
16966;DHT22;8599;47.852;12.070;2023-03-23T03:38:50;10.20;99.90
16966;DHT22;8599;47.852;12.070;2023-03-23T03:41:18;10.20;99.90
16966;DHT22;8599;47.852;12.070;2023-03-23T03:43:45;10.20;99.90
16966;DHT22;8599;47.852;12.070;2023-03-23T03:46:12;10.20;99.90
16966;DHT22;8599;47.852;12.070;2023-03-23T03:48:39;10.30;99.90
16966;DHT22;8599;47.852;12.070;2023-03-23T03:51:06;10.40;99.90
16966;DHT22;8599;47.852;12.070;2023-03-23T03:53:34;10.40;99.90
16966;DHT22;8599;47.852;12.070;2023-03-23T03:56:03;10.40;99.90
16966;DHT22;8599;47.852;12.070;2023-03-23T03:58:29;10.50;99.90
16966;DHT22;8599;47.852;12.070;2023-03-23T04:00:58;10.50;99.90
16966;DHT22;8599;47.852;12.070;2023-03-23T04:03:25;10.50;99.90
16966;DHT22;8599;47.852;12.070;2023-03-23T04:05:53;10.50;99.90
16966;DHT22;8599;47.852;12.070;2023-03-23T04:08:21;10.50;99.90
16966;DHT22;8599;47.852;12.070;2023-03-23T04:10:48;10.60;99.90
16966;DHT22;8599;47.852;12.070;2023-03-23T04:13:17;10.70;99.90
16966;DHT22;8599;47.852;12.070;2023-03-23T04:15:44;10.70;99.90
16966;DHT22;8599;47.852;12.070;2023-03-23T04:18:11;10.80;99.90
16966;DHT22;8599;47.852;12.070;2023-03-23T04:20:40;10.70;99.90
16966;DHT22;8599;47.852;12.070;2023-03-23T04:23:07;10.70;99.90
16966;DHT22;8599;47.852;12.070;2023-03-23T04:25:34;10.60;99.90
16966;DHT22;8599;47.852;12.070;2023-03-23T04:28:01;10.70;99.90
16966;DHT22;8599;47.852;12.070;2023-03-23T04:30:29;10.70;99.90
16966;DHT22;8599;47.852;12.070;2023-03-23T04:32:57;10.70;99.90
16966;DHT22;8599;47.852;12.070;2023-03-23T04:35:27;10.70;99.90
16966;DHT22;8599;47.852;12.070;2023-03-23T04:37:55;10.60;99.90
16966;DHT22;8599;47.852;12.070;2023-03-23T04:40:23;10.70;99.90
16966;DHT22;8599;47.852;12.070;2023-03-23T04:42:50;10.70;99.90
16966;DHT22;8599;47.852;12.070;2023-03-23T04:45:19;10.80;99.90
16966;DHT22;8599;47.852;12.070;2023-03-23T04:47:49;10.70;99.90
16966;DHT22;8599;47.852;12.070;2023-03-23T04:50:20;10.60;99.90
16966;DHT22;8599;47.852;12.070;2023-03-23T04:52:47;10.50;99.90
16966;DHT22;8599;47.852;12.070;2023-03-23T04:55:17;10.40;99.90
16966;DHT22;8599;47.852;12.070;2023-03-23T04:57:44;10.40;99.90
16966;DHT22;8599;47.852;12.070;2023-03-23T05:00:11;10.30;99.90
16966;DHT22;8599;47.852;12.070;2023-03-23T05:02:42;10.20;99.90
16966;DHT22;8599;47.852;12.070;2023-03-23T05:05:12;10.20;99.90
16966;DHT22;8599;47.852;12.070;2023-03-23T05:07:40;9.90;99.90
16966;DHT22;8599;47.852;12.070;2023-03-23T05:10:09;9.80;99.90
16966;DHT22;8599;47.852;12.070;2023-03-23T05:12:36;9.80;99.90
16966;DHT22;8599;47.852;12.070;2023-03-23T05:15:05;9.80;99.90
16966;DHT22;8599;47.852;12.070;2023-03-23T05:17:32;9.80;99.90
16966;DHT22;8599;47.852;12.070;2023-03-23T05:19:59;9.90;99.90
16966;DHT22;8599;47.852;12.070;2023-03-23T05:22:28;9.90;99.90
16966;DHT22;8599;47.852;12.070;2023-03-23T05:24:57;9.90;99.90
16966;DHT22;8599;47.852;12.070;2023-03-23T05:27:24;9.90;99.90
16966;DHT22;8599;47.852;12.070;2023-03-23T05:29:53;10.00;99.90
16966;DHT22;8599;47.852;12.070;2023-03-23T05:32:20;10.10;99.90
16966;DHT22;8599;47.852;12.070;2023-03-23T05:34:55;10.10;99.90
16966;DHT22;8599;47.852;12.070;2023-03-23T05:37:22;10.20;99.90
16966;DHT22;8599;47.852;12.070;2023-03-23T05:39:50;10.20;99.90
16966;DHT22;8599;47.852;12.070;2023-03-23T05:42:19;10.20;99.90
16966;DHT22;8599;47.852;12.070;2023-03-23T05:44:46;10.00;99.90
16966;DHT22;8599;47.852;12.070;2023-03-23T05:47:13;9.90;99.90
16966;DHT22;8599;47.852;12.070;2023-03-23T05:49:40;9.70;99.90
16966;DHT22;8599;47.852;12.070;2023-03-23T05:52:07;9.50;99.90
16966;DHT22;8599;47.852;12.070;2023-03-23T05:54:34;9.50;99.90
16966;DHT22;8599;47.852;12.070;2023-03-23T05:57:03;9.60;99.90
16966;DHT22;8599;47.852;12.070;2023-03-23T05:59:31;9.70;99.90
16966;DHT22;8599;47.852;12.070;2023-03-23T06:01:59;9.80;99.90
16966;DHT22;8599;47.852;12.070;2023-03-23T06:04:26;9.90;99.90
16966;DHT22;8599;47.852;12.070;2023-03-23T06:06:53;10.00;99.90
16966;DHT22;8599;47.852;12.070;2023-03-23T06:09:20;10.10;99.90
16966;DHT22;8599;47.852;12.070;2023-03-23T06:11:49;10.10;99.90
16966;DHT22;8599;47.852;12.070;2023-03-23T06:14:17;10.20;99.90
16966;DHT22;8599;47.852;12.070;2023-03-23T06:16:44;10.30;99.90
16966;DHT22;8599;47.852;12.070;2023-03-23T06:19:11;10.40;99.90
16966;DHT22;8599;47.852;12.070;2023-03-23T06:21:38;10.50;99.90
16966;DHT22;8599;47.852;12.070;2023-03-23T06:24:05;10.60;99.90
16966;DHT22;8599;47.852;12.070;2023-03-23T06:26:35;10.60;99.90
16966;DHT22;8599;47.852;12.070;2023-03-23T06:29:02;10.70;99.90
16966;DHT22;8599;47.852;12.070;2023-03-23T06:31:38;10.80;99.90
16966;DHT22;8599;47.852;12.070;2023-03-23T06:34:06;10.80;99.90
16966;DHT22;8599;47.852;12.070;2023-03-23T06:36:34;10.90;99.90
16966;DHT22;8599;47.852;12.070;2023-03-23T06:39:01;10.90;99.90
16966;DHT22;8599;47.852;12.070;2023-03-23T06:41:29;10.90;99.90
16966;DHT22;8599;47.852;12.070;2023-03-23T06:43:56;11.00;99.90
16966;DHT22;8599;47.852;12.070;2023-03-23T06:46:23;11.10;99.90
16966;DHT22;8599;47.852;12.070;2023-03-23T06:48:51;11.10;99.90
16966;DHT22;8599;47.852;12.070;2023-03-23T06:51:18;11.10;99.90
16966;DHT22;8599;47.852;12.070;2023-03-23T06:53:45;11.20;99.90
16966;DHT22;8599;47.852;12.070;2023-03-23T06:56:12;11.10;99.90
16966;DHT22;8599;47.852;12.070;2023-03-23T06:58:39;11.20;99.90
16966;DHT22;8599;47.852;12.070;2023-03-23T07:01:07;11.10;99.90
16966;DHT22;8599;47.852;12.070;2023-03-23T07:03:35;11.10;99.90
16966;DHT22;8599;47.852;12.070;2023-03-23T07:06:04;11.20;99.90
16966;DHT22;8599;47.852;12.070;2023-03-23T07:08:31;11.20;99.90
16966;DHT22;8599;47.852;12.070;2023-03-23T07:10:58;11.20;99.90
16966;DHT22;8599;47.852;12.070;2023-03-23T07:13:25;11.20;99.90
16966;DHT22;8599;47.852;12.070;2023-03-23T07:15:52;11.10;99.90
16966;DHT22;8599;47.852;12.070;2023-03-23T07:18:21;11.20;99.90
16966;DHT22;8599;47.852;12.070;2023-03-23T07:20:49;11.20;99.90
16966;DHT22;8599;47.852;12.070;2023-03-23T07:23:17;11.20;99.90
16966;DHT22;8599;47.852;12.070;2023-03-23T07:25:45;11.20;99.90
16966;DHT22;8599;47.852;12.070;2023-03-23T07:28:14;11.30;99.90
16966;DHT22;8599;47.852;12.070;2023-03-23T07:30:41;11.30;99.90
16966;DHT22;8599;47.852;12.070;2023-03-23T07:33:09;11.30;99.90
16966;DHT22;8599;47.852;12.070;2023-03-23T07:35:36;11.30;99.90
16966;DHT22;8599;47.852;12.070;2023-03-23T07:38:04;11.40;99.90
16966;DHT22;8599;47.852;12.070;2023-03-23T07:40:33;11.40;99.90
16966;DHT22;8599;47.852;12.070;2023-03-23T07:43:01;11.40;99.90
16966;DHT22;8599;47.852;12.070;2023-03-23T07:45:29;11.40;99.90
16966;DHT22;8599;47.852;12.070;2023-03-23T07:47:55;11.50;99.90
16966;DHT22;8599;47.852;12.070;2023-03-23T07:50:23;11.60;99.90
16966;DHT22;8599;47.852;12.070;2023-03-23T07:52:51;11.50;99.90
16966;DHT22;8599;47.852;12.070;2023-03-23T07:55:18;11.50;99.90
16966;DHT22;8599;47.852;12.070;2023-03-23T07:57:46;11.60;99.90
16966;DHT22;8599;47.852;12.070;2023-03-23T08:00:15;11.60;99.90
16966;DHT22;8599;47.852;12.070;2023-03-23T08:02:45;11.70;99.90
16966;DHT22;8599;47.852;12.070;2023-03-23T08:05:12;11.80;99.90
16966;DHT22;8599;47.852;12.070;2023-03-23T08:07:40;11.80;99.90
16966;DHT22;8599;47.852;12.070;2023-03-23T08:10:08;12.00;99.90
16966;DHT22;8599;47.852;12.070;2023-03-23T08:12:37;12.10;99.90
16966;DHT22;8599;47.852;12.070;2023-03-23T08:15:07;12.20;99.90
16966;DHT22;8599;47.852;12.070;2023-03-23T08:17:35;12.40;99.90
16966;DHT22;8599;47.852;12.070;2023-03-23T08:20:03;12.50;99.90
16966;DHT22;8599;47.852;12.070;2023-03-23T08:22:38;12.60;99.90
16966;DHT22;8599;47.852;12.070;2023-03-23T08:25:07;12.80;99.90
16966;DHT22;8599;47.852;12.070;2023-03-23T08:27:35;12.90;99.90
16966;DHT22;8599;47.852;12.070;2023-03-23T08:30:03;13.00;99.90
16966;DHT22;8599;47.852;12.070;2023-03-23T08:32:33;13.10;99.90
16966;DHT22;8599;47.852;12.070;2023-03-23T08:35:01;13.20;99.90
16966;DHT22;8599;47.852;12.070;2023-03-23T08:37:28;13.10;99.90
16966;DHT22;8599;47.852;12.070;2023-03-23T08:39:56;13.20;99.90
16966;DHT22;8599;47.852;12.070;2023-03-23T08:42:23;13.30;99.90
16966;DHT22;8599;47.852;12.070;2023-03-23T08:44:50;13.40;99.90
16966;DHT22;8599;47.852;12.070;2023-03-23T08:47:17;13.50;99.90
16966;DHT22;8599;47.852;12.070;2023-03-23T08:49:46;13.50;99.90
16966;DHT22;8599;47.852;12.070;2023-03-23T08:52:18;13.60;99.90
16966;DHT22;8599;47.852;12.070;2023-03-23T08:54:45;13.60;99.90
16966;DHT22;8599;47.852;12.070;2023-03-23T08:57:13;13.70;99.90
16966;DHT22;8599;47.852;12.070;2023-03-23T08:59:40;13.80;99.90
16966;DHT22;8599;47.852;12.070;2023-03-23T09:02:09;13.90;99.90
16966;DHT22;8599;47.852;12.070;2023-03-23T09:04:37;13.90;99.90
16966;DHT22;8599;47.852;12.070;2023-03-23T09:07:06;14.00;99.90
16966;DHT22;8599;47.852;12.070;2023-03-23T09:09:33;14.00;99.90
16966;DHT22;8599;47.852;12.070;2023-03-23T09:12:00;13.90;99.90
16966;DHT22;8599;47.852;12.070;2023-03-23T09:14:27;14.00;99.90
16966;DHT22;8599;47.852;12.070;2023-03-23T09:16:54;14.10;99.90
16966;DHT22;8599;47.852;12.070;2023-03-23T09:19:21;14.20;99.90
16966;DHT22;8599;47.852;12.070;2023-03-23T09:21:48;14.30;99.90
16966;DHT22;8599;47.852;12.070;2023-03-23T09:24:17;14.50;99.90
16966;DHT22;8599;47.852;12.070;2023-03-23T09:26:44;14.70;99.90
16966;DHT22;8599;47.852;12.070;2023-03-23T09:29:12;14.90;99.90
16966;DHT22;8599;47.852;12.070;2023-03-23T09:31:39;14.90;99.90
16966;DHT22;8599;47.852;12.070;2023-03-23T09:34:08;14.90;99.90
16966;DHT22;8599;47.852;12.070;2023-03-23T09:36:35;15.00;99.90
16966;DHT22;8599;47.852;12.070;2023-03-23T09:39:04;15.00;99.90
16966;DHT22;8599;47.852;12.070;2023-03-23T09:41:59;15.00;99.90
16966;DHT22;8599;47.852;12.070;2023-03-23T09:44:36;15.10;99.90
16966;DHT22;8599;47.852;12.070;2023-03-23T09:47:10;15.10;99.90
16966;DHT22;8599;47.852;12.070;2023-03-23T09:49:42;15.20;99.90
16966;DHT22;8599;47.852;12.070;2023-03-23T09:52:13;15.20;99.90
16966;DHT22;8599;47.852;12.070;2023-03-23T09:54:42;15.10;99.90
16966;DHT22;8599;47.852;12.070;2023-03-23T09:57:16;15.00;99.90
16966;DHT22;8599;47.852;12.070;2023-03-23T09:59:51;14.90;99.90
16966;DHT22;8599;47.852;12.070;2023-03-23T10:02:24;15.00;99.90
16966;DHT22;8599;47.852;12.070;2023-03-23T10:05:12;15.00;99.90
16966;DHT22;8599;47.852;12.070;2023-03-23T10:07:42;15.00;99.90
16966;DHT22;8599;47.852;12.070;2023-03-23T10:10:12;15.00;99.90
16966;DHT22;8599;47.852;12.070;2023-03-23T10:12:45;15.10;99.90
16966;DHT22;8599;47.852;12.070;2023-03-23T10:15:18;15.20;99.90
16966;DHT22;8599;47.852;12.070;2023-03-23T10:17:50;15.20;99.90
16966;DHT22;8599;47.852;12.070;2023-03-23T10:20:28;15.30;99.90
16966;DHT22;8599;47.852;12.070;2023-03-23T10:23:04;15.40;99.90
16966;DHT22;8599;47.852;12.070;2023-03-23T10:25:34;15.40;99.90
16966;DHT22;8599;47.852;12.070;2023-03-23T10:28:06;15.50;99.90
16966;DHT22;8599;47.852;12.070;2023-03-23T10:30:37;15.60;99.90
16966;DHT22;8599;47.852;12.070;2023-03-23T10:33:11;15.70;99.90
16966;DHT22;8599;47.852;12.070;2023-03-23T10:35:43;15.80;99.90
16966;DHT22;8599;47.852;12.070;2023-03-23T10:38:14;15.80;99.90
16966;DHT22;8599;47.852;12.070;2023-03-23T10:40:48;15.90;99.90
16966;DHT22;8599;47.852;12.070;2023-03-23T10:43:17;16.00;99.90
16966;DHT22;8599;47.852;12.070;2023-03-23T10:45:47;16.10;99.90
16966;DHT22;8599;47.852;12.070;2023-03-23T10:48:18;16.20;99.90
16966;DHT22;8599;47.852;12.070;2023-03-23T10:50:50;16.30;99.90
16966;DHT22;8599;47.852;12.070;2023-03-23T10:53:32;16.40;99.90
16966;DHT22;8599;47.852;12.070;2023-03-23T10:55:59;16.50;99.90
16966;DHT22;8599;47.852;12.070;2023-03-23T10:58:29;16.50;99.90
16966;DHT22;8599;47.852;12.070;2023-03-23T11:00:57;16.60;99.90
16966;DHT22;8599;47.852;12.070;2023-03-23T11:03:35;16.70;99.90
16966;DHT22;8599;47.852;12.070;2023-03-23T11:06:06;16.70;99.90
16966;DHT22;8599;47.852;12.070;2023-03-23T11:08:36;16.80;99.90
16966;DHT22;8599;47.852;12.070;2023-03-23T11:11:11;16.90;99.90
16966;DHT22;8599;47.852;12.070;2023-03-23T11:13:44;16.90;99.90
16966;DHT22;8599;47.852;12.070;2023-03-23T11:16:23;17.00;99.90
16966;DHT22;8599;47.852;12.070;2023-03-23T11:18:49;17.20;99.90
16966;DHT22;8599;47.852;12.070;2023-03-23T11:21:20;17.30;99.90
16966;DHT22;8599;47.852;12.070;2023-03-23T11:23:49;17.40;99.90
16966;DHT22;8599;47.852;12.070;2023-03-23T11:26:19;17.50;99.90
16966;DHT22;8599;47.852;12.070;2023-03-23T11:28:52;17.60;99.90
16966;DHT22;8599;47.852;12.070;2023-03-23T11:31:22;17.50;99.90
16966;DHT22;8599;47.852;12.070;2023-03-23T11:33:53;17.50;99.90
16966;DHT22;8599;47.852;12.070;2023-03-23T11:36:29;17.40;99.90
16966;DHT22;8599;47.852;12.070;2023-03-23T11:38:57;17.50;99.90
16966;DHT22;8599;47.852;12.070;2023-03-23T11:41:25;17.40;99.90
16966;DHT22;8599;47.852;12.070;2023-03-23T11:43:56;17.40;99.90
16966;DHT22;8599;47.852;12.070;2023-03-23T11:46:32;17.50;99.90
16966;DHT22;8599;47.852;12.070;2023-03-23T11:49:01;17.50;99.90
16966;DHT22;8599;47.852;12.070;2023-03-23T11:51:33;17.50;99.90
16966;DHT22;8599;47.852;12.070;2023-03-23T11:54:11;17.40;99.90
16966;DHT22;8599;47.852;12.070;2023-03-23T11:56:42;17.50;99.90
16966;DHT22;8599;47.852;12.070;2023-03-23T11:59:12;17.40;99.90
16966;DHT22;8599;47.852;12.070;2023-03-23T12:01:51;17.50;99.90
16966;DHT22;8599;47.852;12.070;2023-03-23T12:07:23;17.40;99.90
16966;DHT22;8599;47.852;12.070;2023-03-23T12:09:58;17.50;99.90
16966;DHT22;8599;47.852;12.070;2023-03-23T12:12:34;17.70;99.90
16966;DHT22;8599;47.852;12.070;2023-03-23T12:15:11;18.00;99.90
16966;DHT22;8599;47.852;12.070;2023-03-23T12:17:49;18.30;99.90
16966;DHT22;8599;47.852;12.070;2023-03-23T12:20:27;18.40;99.90
16966;DHT22;8599;47.852;12.070;2023-03-23T12:23:08;18.40;99.90
16966;DHT22;8599;47.852;12.070;2023-03-23T12:28:37;18.50;99.90
16966;DHT22;8599;47.852;12.070;2023-03-23T12:31:13;18.60;99.90
16966;DHT22;8599;47.852;12.070;2023-03-23T12:33:49;18.70;99.90
16966;DHT22;8599;47.852;12.070;2023-03-23T12:36:26;18.70;99.90
16966;DHT22;8599;47.852;12.070;2023-03-23T12:39:29;18.70;99.90
16966;DHT22;8599;47.852;12.070;2023-03-23T12:42:04;18.90;99.90
16966;DHT22;8599;47.852;12.070;2023-03-23T12:44:40;19.10;99.90
16966;DHT22;8599;47.852;12.070;2023-03-23T12:47:18;19.20;99.90
16966;DHT22;8599;47.852;12.070;2023-03-23T12:49:52;19.10;99.50
16966;DHT22;8599;47.852;12.070;2023-03-23T12:52:23;19.10;99.10
16966;DHT22;8599;47.852;12.070;2023-03-23T12:54:59;19.00;99.10
16966;DHT22;8599;47.852;12.070;2023-03-23T12:57:36;18.90;98.90
16966;DHT22;8599;47.852;12.070;2023-03-23T13:00:12;18.90;98.90
16966;DHT22;8599;47.852;12.070;2023-03-23T13:02:46;18.90;99.40
16966;DHT22;8599;47.852;12.070;2023-03-23T13:05:33;18.90;98.80
16966;DHT22;8599;47.852;12.070;2023-03-23T13:08:05;19.00;99.00
16966;DHT22;8599;47.852;12.070;2023-03-23T13:10:38;18.90;97.80
16966;DHT22;8599;47.852;12.070;2023-03-23T13:13:12;18.90;98.20
16966;DHT22;8599;47.852;12.070;2023-03-23T13:15:48;18.70;98.30
16966;DHT22;8599;47.852;12.070;2023-03-23T13:18:26;18.70;98.80
16966;DHT22;8599;47.852;12.070;2023-03-23T13:21:00;18.70;98.40
16966;DHT22;8599;47.852;12.070;2023-03-23T13:23:31;18.80;98.90
16966;DHT22;8599;47.852;12.070;2023-03-23T13:26:01;18.80;98.80
16966;DHT22;8599;47.852;12.070;2023-03-23T13:28:31;18.70;98.80
16966;DHT22;8599;47.852;12.070;2023-03-23T13:31:01;18.70;99.00
16966;DHT22;8599;47.852;12.070;2023-03-23T13:33:32;18.70;98.60
16966;DHT22;8599;47.852;12.070;2023-03-23T13:36:05;18.70;98.90
16966;DHT22;8599;47.852;12.070;2023-03-23T13:38:34;18.80;99.00
16966;DHT22;8599;47.852;12.070;2023-03-23T13:41:07;18.90;98.30
16966;DHT22;8599;47.852;12.070;2023-03-23T13:43:37;18.90;96.50
16966;DHT22;8599;47.852;12.070;2023-03-23T13:46:09;19.00;95.40
16966;DHT22;8599;47.852;12.070;2023-03-23T13:48:43;19.00;95.70
16966;DHT22;8599;47.852;12.070;2023-03-23T13:51:33;18.90;96.10
16966;DHT22;8599;47.852;12.070;2023-03-23T13:54:24;19.00;95.40
16966;DHT22;8599;47.852;12.070;2023-03-23T13:56:56;19.10;94.70
16966;DHT22;8599;47.852;12.070;2023-03-23T13:59:34;19.20;94.00
16966;DHT22;8599;47.852;12.070;2023-03-23T14:02:27;19.30;92.70
16966;DHT22;8599;47.852;12.070;2023-03-23T14:04:56;19.20;93.70
16966;DHT22;8599;47.852;12.070;2023-03-23T14:07:23;19.20;93.40
16966;DHT22;8599;47.852;12.070;2023-03-23T14:09:51;19.20;93.00
16966;DHT22;8599;47.852;12.070;2023-03-23T14:12:20;19.20;92.80
16966;DHT22;8599;47.852;12.070;2023-03-23T14:14:50;19.30;92.70
16966;DHT22;8599;47.852;12.070;2023-03-23T14:17:22;19.20;92.70
16966;DHT22;8599;47.852;12.070;2023-03-23T14:19:52;19.20;93.20
16966;DHT22;8599;47.852;12.070;2023-03-23T14:22:24;19.20;93.20
16966;DHT22;8599;47.852;12.070;2023-03-23T14:24:53;19.30;92.60
16966;DHT22;8599;47.852;12.070;2023-03-23T14:27:27;19.40;92.40
16966;DHT22;8599;47.852;12.070;2023-03-23T14:30:03;19.60;92.30
16966;DHT22;8599;47.852;12.070;2023-03-23T14:32:32;19.80;92.40
16966;DHT22;8599;47.852;12.070;2023-03-23T14:35:04;19.90;92.00
16966;DHT22;8599;47.852;12.070;2023-03-23T14:37:33;19.80;92.30
16966;DHT22;8599;47.852;12.070;2023-03-23T14:40:02;19.70;92.20
16966;DHT22;8599;47.852;12.070;2023-03-23T14:42:33;19.60;92.30
16966;DHT22;8599;47.852;12.070;2023-03-23T14:45:03;19.60;92.10
16966;DHT22;8599;47.852;12.070;2023-03-23T14:47:33;19.50;92.40
16966;DHT22;8599;47.852;12.070;2023-03-23T14:50:03;19.30;92.40
16966;DHT22;8599;47.852;12.070;2023-03-23T14:52:36;19.30;92.80
16966;DHT22;8599;47.852;12.070;2023-03-23T14:55:12;19.40;92.70
16966;DHT22;8599;47.852;12.070;2023-03-23T14:57:41;19.30;92.90
16966;DHT22;8599;47.852;12.070;2023-03-23T15:00:13;19.30;93.10
16966;DHT22;8599;47.852;12.070;2023-03-23T15:02:42;19.20;93.00
16966;DHT22;8599;47.852;12.070;2023-03-23T15:05:13;19.10;92.90
16966;DHT22;8599;47.852;12.070;2023-03-23T15:07:44;19.10;92.70
16966;DHT22;8599;47.852;12.070;2023-03-23T15:10:16;18.90;92.70
16966;DHT22;8599;47.852;12.070;2023-03-23T15:12:45;18.80;92.80
16966;DHT22;8599;47.852;12.070;2023-03-23T15:15:20;18.70;92.30
16966;DHT22;8599;47.852;12.070;2023-03-23T15:17:47;18.60;92.50
16966;DHT22;8599;47.852;12.070;2023-03-23T15:20:21;18.50;92.80
16966;DHT22;8599;47.852;12.070;2023-03-23T15:22:50;18.60;92.30
16966;DHT22;8599;47.852;12.070;2023-03-23T15:25:19;18.60;92.40
16966;DHT22;8599;47.852;12.070;2023-03-23T15:27:50;18.70;92.30
16966;DHT22;8599;47.852;12.070;2023-03-23T15:30:29;18.70;92.10
16966;DHT22;8599;47.852;12.070;2023-03-23T15:33:01;18.70;92.50
16966;DHT22;8599;47.852;12.070;2023-03-23T15:35:34;18.70;92.80
16966;DHT22;8599;47.852;12.070;2023-03-23T15:38:03;18.60;93.00
16966;DHT22;8599;47.852;12.070;2023-03-23T15:40:36;18.70;93.00
16966;DHT22;8599;47.852;12.070;2023-03-23T15:43:14;18.60;93.10
16966;DHT22;8599;47.852;12.070;2023-03-23T15:45:52;18.50;93.50
16966;DHT22;8599;47.852;12.070;2023-03-23T15:48:19;18.40;93.80
16966;DHT22;8599;47.852;12.070;2023-03-23T15:50:47;18.30;93.90
16966;DHT22;8599;47.852;12.070;2023-03-23T15:53:31;18.30;94.20
16966;DHT22;8599;47.852;12.070;2023-03-23T15:56:00;18.30;94.40
16966;DHT22;8599;47.852;12.070;2023-03-23T15:58:28;18.20;94.60
16966;DHT22;8599;47.852;12.070;2023-03-23T16:00:55;18.20;94.50
16966;DHT22;8599;47.852;12.070;2023-03-23T16:03:25;18.20;94.90